Donnellson, Iowa
Current Conditions -  °F | °C
As of 6:15 PM on Wednesday 28 Jan 2015 (Local Time) from KFSW Reporting Station
Clear Clear  
Wind Chill:   Ceiling: Unl
Heat Index:   Visibility: 10mi
Dew Point:   Wind: 14mph
Humidity: 81%   Direction: 150°SSE
Pressure: 29.79"   Gusts: 23mph
Location:  40.64°N, 91.56°W
Report Text: KFSW 290015Z AUTO 15012G20KT 10SM CLR 04/01 A2979 RMK AO2
Loading
Personal Weather Stations






























Interactive Weather Map New forecast layout! Learn more

10-Day Weather Forecast

Advertisements
Track Severe Weather on mobile